createdAt,value
2017-12-20T00:00:08.753Z,29.3
2017-12-20T00:01:06.843Z,29.3
2017-12-20T00:02:06.938Z,29.3
2017-12-20T00:03:08.649Z,29.3
2017-12-20T00:04:07.021Z,29.3
2017-12-20T00:05:07.119Z,29.3
2017-12-20T00:06:06.952Z,29.3
2017-12-20T00:07:07.039Z,29.3
2017-12-20T00:08:07.296Z,29.3
2017-12-20T00:09:09.117Z,29.3
2017-12-20T00:10:07.281Z,29.3
2017-12-20T00:11:07.484Z,29.3
2017-12-20T00:12:09.256Z,29.3
2017-12-20T00:13:09.531Z,29.3
2017-12-20T00:14:07.705Z,29.3
2017-12-20T00:15:07.608Z,29.3
2017-12-20T00:16:09.761Z,29.3
2017-12-20T00:17:09.586Z,29.4
2017-12-20T00:18:07.814Z,29.3
2017-12-20T00:19:09.963Z,29.3
2017-12-20T00:20:07.877Z,29.3
2017-12-20T00:21:09.865Z,29.3
2017-12-20T00:22:08.168Z,29.3
2017-12-20T00:23:09.941Z,29.3
2017-12-20T00:24:10.227Z,29.3
2017-12-20T00:25:10.074Z,29.3
2017-12-20T00:26:08.380Z,29.3
2017-12-20T00:27:10.126Z,29.3
2017-12-20T00:28:10.352Z,29.3
2017-12-20T00:29:08.226Z,29.3
2017-12-20T00:30:08.280Z,29.3
2017-12-20T00:31:10.500Z,29.3
2017-12-20T00:32:08.716Z,29.3
2017-12-20T00:33:08.718Z,29.3
2017-12-20T00:34:08.720Z,29.3
2017-12-20T00:35:10.699Z,29.3
2017-12-20T00:36:10.570Z,29.3
2017-12-20T00:37:08.907Z,29.3
2017-12-20T00:38:10.874Z,29.3
2017-12-20T00:39:10.665Z,29.3
2017-12-20T00:40:08.839Z,29.3
2017-12-20T00:41:10.940Z,29.3
2017-12-20T00:42:08.929Z,29.3
2017-12-20T00:43:11.156Z,29.3
2017-12-20T00:44:10.972Z,29.3
2017-12-20T00:45:09.098Z,29.3
2017-12-20T00:46:09.195Z,29.3
2017-12-20T00:47:11.174Z,29.3
2017-12-20T00:48:11.259Z,29.3
2017-12-20T00:49:09.556Z,29.3
2017-12-20T00:50:11.360Z,29.3
2017-12-20T00:51:11.450Z,29.3
2017-12-20T00:52:09.610Z,29.3
2017-12-20T00:53:09.680Z,29.3
2017-12-20T00:54:09.718Z,29.3
2017-12-20T00:55:10.037Z,29.3
2017-12-20T00:56:09.816Z,29.3
2017-12-20T00:57:10.061Z,29.3
2017-12-20T00:58:09.950Z,29.3
2017-12-20T00:59:10.253Z,29.3
2017-12-20T01:00:12.190Z,29.3
2017-12-20T01:01:10.096Z,29.3
2017-12-20T01:02:12.271Z,29.3
2017-12-20T01:03:10.239Z,29.3
2017-12-20T01:04:12.379Z,29.3
2017-12-20T01:05:12.476Z,29.3
2017-12-20T01:06:10.383Z,29.3
2017-12-20T01:07:10.664Z,29.3
2017-12-20T01:08:12.640Z,29.3
2017-12-20T01:09:12.537Z,29.3
2017-12-20T01:10:12.844Z,29.3
2017-12-20T01:11:12.842Z,29.3
2017-12-20T01:12:10.790Z,29.3
2017-12-20T01:13:10.812Z,29.3
2017-12-20T01:14:12.754Z,29.3
2017-12-20T01:15:12.809Z,29.3
2017-12-20T01:16:13.210Z,29.3
2017-12-20T01:17:12.964Z,29.3
2017-12-20T01:18:11.046Z,29.3
2017-12-20T01:19:12.975Z,29.3
2017-12-20T01:20:11.343Z,29.3
2017-12-20T01:21:11.294Z,29.3
2017-12-20T01:22:13.218Z,29.3
2017-12-20T01:23:13.234Z,29.3
2017-12-20T01:24:13.320Z,29.3
2017-12-20T01:25:13.558Z,29.3
2017-12-20T01:26:13.670Z,29.3
2017-12-20T01:27:13.519Z,29.3
2017-12-20T01:28:13.529Z,29.3
2017-12-20T01:29:13.798Z,29.3
2017-12-20T01:30:11.949Z,29.3
2017-12-20T01:31:13.936Z,29.3
2017-12-20T01:32:11.849Z,29.3
2017-12-20T01:33:11.826Z,29.3
2017-12-20T01:34:13.825Z,29.3
2017-12-20T01:35:13.866Z,29.3
2017-12-20T01:36:14.173Z,29.3
2017-12-20T01:37:14.178Z,29.3
2017-12-20T01:38:14.257Z,29.3
2017-12-20T01:39:14.285Z,29.3
2017-12-20T01:40:12.196Z,29.3
2017-12-20T01:41:12.483Z,29.3
2017-12-20T01:42:14.290Z,29.3
2017-12-20T01:43:14.692Z,29.3
2017-12-20T01:44:12.859Z,29.3
2017-12-20T01:45:12.708Z,29.3
2017-12-20T01:46:14.797Z,29.3
2017-12-20T01:47:14.664Z,29.3
2017-12-20T01:48:14.658Z,29.3
2017-12-20T01:49:14.944Z,29.3
2017-12-20T01:50:15.062Z,29.3
2017-12-20T01:51:15.090Z,29.3
2017-12-20T01:52:15.104Z,29.3
2017-12-20T01:53:15.133Z,29.3
2017-12-20T01:54:13.269Z,29.3
2017-12-20T01:55:15.259Z,29.3
2017-12-20T01:56:13.153Z,29.3
2017-12-20T01:57:15.350Z,29.3
2017-12-20T01:58:13.471Z,29.3
2017-12-20T01:59:15.241Z,29.3
2017-12-20T02:00:13.633Z,29.3
2017-12-20T02:01:13.503Z,29.3
2017-12-20T02:02:15.654Z,29.3
2017-12-20T02:03:13.694Z,29.3
2017-12-20T02:04:13.727Z,29.3
2017-12-20T02:05:13.860Z,29.3
2017-12-20T02:06:15.826Z,29.3
2017-12-20T02:07:13.756Z,29.3
2017-12-20T02:08:15.982Z,29.3
2017-12-20T02:09:14.168Z,29.3
2017-12-20T02:10:16.101Z,29.2
2017-12-20T02:11:15.908Z,29.2
2017-12-20T02:12:14.173Z,29.3
2017-12-20T02:13:16.006Z,29.3
2017-12-20T02:14:14.292Z,29.3
2017-12-20T02:15:16.298Z,29.3
2017-12-20T02:16:16.169Z,29.3
2017-12-20T02:17:16.170Z,29.3
2017-12-20T02:18:16.449Z,29.3
2017-12-20T02:19:16.236Z,29.3
2017-12-20T02:20:16.521Z,29.3
2017-12-20T02:21:16.603Z,29.3
2017-12-20T02:22:14.574Z,29.3
2017-12-20T02:23:16.480Z,29.3
2017-12-20T02:24:16.503Z,29.3
2017-12-20T02:25:16.781Z,29.3
2017-12-20T02:26:16.822Z,29.3
2017-12-20T02:27:17.075Z,29.3
2017-12-20T02:28:17.040Z,29.3
2017-12-20T02:29:14.962Z,29.3
2017-12-20T02:30:16.842Z,29.3
2017-12-20T02:31:17.068Z,29.3
2017-12-20T02:32:14.972Z,29.3
2017-12-20T02:33:15.156Z,29.2
2017-12-20T02:34:17.103Z,29.2
2017-12-20T02:35:17.191Z,29.3
2017-12-20T02:36:15.152Z,29.2
2017-12-20T02:37:15.181Z,29.3
2017-12-20T02:38:17.164Z,29.3
2017-12-20T02:39:15.328Z,29.3
2017-12-20T02:40:17.438Z,29.2
2017-12-20T02:41:15.412Z,29.3
2017-12-20T02:42:17.439Z,29.3
2017-12-20T02:43:17.766Z,29.3
2017-12-20T02:44:15.681Z,29.3
2017-12-20T02:45:15.743Z,29.3
2017-12-20T02:46:17.918Z,29.3
2017-12-20T02:47:15.964Z,29.2
2017-12-20T02:48:15.862Z,29.2
2017-12-20T02:49:15.937Z,29.2
2017-12-20T02:50:16.183Z,29.2
2017-12-20T02:51:16.253Z,29.2
2017-12-20T02:52:18.044Z,29.2
2017-12-20T02:53:16.175Z,29.2
2017-12-20T02:54:18.315Z,29.2
2017-12-20T02:55:16.202Z,29.2
2017-12-20T02:56:16.234Z,29.2
2017-12-20T02:57:18.417Z,29.2
2017-12-20T02:58:18.236Z,29.2
2017-12-20T02:59:16.563Z,29.2
2017-12-20T03:00:18.395Z,29.2
2017-12-20T03:01:16.512Z,29.2
2017-12-20T03:02:16.584Z,29.2
2017-12-20T03:03:18.785Z,29.2
2017-12-20T03:04:18.661Z,29.2
2017-12-20T03:05:18.655Z,29.2
2017-12-20T03:06:16.885Z,29.2
2017-12-20T03:07:16.849Z,29.2
2017-12-20T03:08:18.852Z,29.2
2017-12-20T03:09:19.149Z,29.2
2017-12-20T03:10:17.095Z,29.2
2017-12-20T03:11:19.040Z,29.2
2017-12-20T03:12:19.307Z,29.2
2017-12-20T03:13:17.388Z,29.2
2017-12-20T03:14:17.419Z,29.2
2017-12-20T03:15:17.421Z,29.2
2017-12-20T03:16:19.191Z,29.2
2017-12-20T03:17:19.494Z,29.2
2017-12-20T03:18:17.519Z,29.2
2017-12-20T03:19:17.466Z,29.2
2017-12-20T03:20:17.705Z,29.2
2017-12-20T03:21:19.626Z,29.2
2017-12-20T03:22:17.763Z,29.2
2017-12-20T03:23:17.841Z,29.2
2017-12-20T03:24:19.534Z,29.2
2017-12-20T03:25:19.545Z,29.2
2017-12-20T03:26:19.631Z,29.2
2017-12-20T03:27:19.644Z,29.2
2017-12-20T03:28:17.771Z,29.2
2017-12-20T03:29:19.704Z,29.2
2017-12-20T03:30:19.777Z,29.2
2017-12-20T03:31:19.846Z,29.2
2017-12-20T03:32:19.951Z,29.2
2017-12-20T03:33:18.264Z,29.2
2017-12-20T03:34:18.278Z,29.2
2017-12-20T03:35:20.017Z,29.2
2017-12-20T03:36:20.293Z,29.2
2017-12-20T03:37:18.445Z,29.2
2017-12-20T03:38:20.462Z,29.2
2017-12-20T03:39:20.484Z,29.2
2017-12-20T03:40:20.350Z,29.2
2017-12-20T03:41:18.693Z,29.2
2017-12-20T03:42:18.758Z,29.2
2017-12-20T03:43:18.633Z,29.2
2017-12-20T03:44:18.899Z,29.2
2017-12-20T03:45:20.921Z,29.2
2017-12-20T03:46:18.819Z,29.2
2017-12-20T03:47:20.733Z,29.2
2017-12-20T03:48:21.032Z,29.2
2017-12-20T03:49:20.849Z,29.2
2017-12-20T03:50:21.136Z,29.2
2017-12-20T03:51:21.219Z,29.2
2017-12-20T03:52:21.262Z,29.2
2017-12-20T03:53:21.076Z,29.2
2017-12-20T03:54:21.365Z,29.2
2017-12-20T03:55:19.542Z,29.2
2017-12-20T03:56:19.408Z,29.2
2017-12-20T03:57:19.442Z,29.2
2017-12-20T03:58:21.567Z,29.2
2017-12-20T03:59:19.631Z,29.2
2017-12-20T04:00:21.416Z,29.2
2017-12-20T04:01:21.614Z,29.2
2017-12-20T04:02:19.762Z,29.2
2017-12-20T04:03:19.656Z,29.2
2017-12-20T04:04:21.618Z,29.2
2017-12-20T04:05:21.912Z,29.2
2017-12-20T04:06:19.970Z,29.2
2017-12-20T04:07:21.928Z,29.2
2017-12-20T04:08:19.813Z,29.2
2017-12-20T04:09:21.738Z,29.2
2017-12-20T04:10:19.866Z,29.2
2017-12-20T04:11:19.970Z,29.2
2017-12-20T04:12:20.259Z,29.2
2017-12-20T04:13:20.255Z,29.2
2017-12-20T04:14:20.341Z,29.2
2017-12-20T04:15:20.398Z,29.2
2017-12-20T04:16:20.310Z,29.2
2017-12-20T04:17:20.540Z,29.2
2017-12-20T04:18:20.448Z,29.2
2017-12-20T04:19:20.449Z,29.2
2017-12-20T04:20:22.461Z,29.2
2017-12-20T04:21:20.594Z,29.2
2017-12-20T04:22:22.790Z,29.2
2017-12-20T04:23:20.985Z,29.2
2017-12-20T04:24:22.996Z,29.2
2017-12-20T04:25:22.758Z,29.2
2017-12-20T04:26:22.855Z,29.2
2017-12-20T04:27:20.941Z,29.2
2017-12-20T04:28:21.041Z,29.2
2017-12-20T04:29:21.068Z,29.2
2017-12-20T04:30:21.268Z,29.2
2017-12-20T04:31:23.085Z,29.2
2017-12-20T04:32:23.282Z,29.2
2017-12-20T04:33:21.243Z,29.2
2017-12-20T04:34:23.212Z,29.2
2017-12-20T04:35:21.314Z,29.2
2017-12-20T04:36:21.391Z,29.2
2017-12-20T04:37:23.524Z,29.2
2017-12-20T04:38:21.437Z,29.2
2017-12-20T04:39:23.577Z,29.2
2017-12-20T04:40:21.709Z,29.2
2017-12-20T04:41:21.723Z,29.2
2017-12-20T04:42:23.471Z,29.1
2017-12-20T04:43:21.822Z,29.1
2017-12-20T04:44:21.778Z,29.1
2017-12-20T04:45:23.601Z,29.1
2017-12-20T04:46:23.712Z,29.1
2017-12-20T04:47:21.951Z,29.1
2017-12-20T04:48:21.872Z,29.1
2017-12-20T04:49:24.030Z,29.1
2017-12-20T04:50:21.971Z,29.1
2017-12-20T04:51:23.935Z,29.1
2017-12-20T04:52:24.021Z,29.1
2017-12-20T04:53:22.301Z,29.1
2017-12-20T04:54:24.096Z,29.1
2017-12-20T04:55:22.191Z,29.1
2017-12-20T04:56:22.471Z,29.1
2017-12-20T04:57:22.568Z,29.1
2017-12-20T04:58:24.338Z,29.1
2017-12-20T04:59:24.556Z,29.1
2017-12-20T05:00:24.426Z,29.1
2017-12-20T05:01:22.687Z,29.1
2017-12-20T05:02:24.471Z,29.1
2017-12-20T05:03:22.635Z,29.1
2017-12-20T05:04:24.599Z,29.1
2017-12-20T05:05:22.952Z,29.1
2017-12-20T05:06:24.862Z,29.1
2017-12-20T05:07:22.830Z,29.1
2017-12-20T05:08:22.885Z,29.1
2017-12-20T05:09:22.950Z,29.1
2017-12-20T05:10:23.190Z,29.1
2017-12-20T05:11:25.169Z,29.1
2017-12-20T05:12:23.154Z,29.1
2017-12-20T05:13:23.429Z,29.1
2017-12-20T05:14:23.248Z,29.1
2017-12-20T05:15:23.554Z,29.1
2017-12-20T05:16:23.615Z,29.1
2017-12-20T05:17:25.575Z,29.1
2017-12-20T05:18:25.600Z,29.1
2017-12-20T05:19:23.720Z,29.2
2017-12-20T05:20:23.764Z,29.7
2017-12-20T05:21:25.779Z,29.9
2017-12-20T05:22:25.833Z,30.2
2017-12-20T05:23:23.739Z,30.5
2017-12-20T05:24:23.807Z,30.8
2017-12-20T05:25:26.010Z,30.9
2017-12-20T05:26:24.138Z,31
2017-12-20T05:27:26.181Z,31.2
2017-12-20T05:28:25.982Z,31.3
2017-12-20T05:29:26.017Z,31.4
2017-12-20T05:30:26.284Z,31.4
2017-12-20T05:31:26.343Z,31.5
2017-12-20T05:32:24.314Z,31.6
2017-12-20T05:33:24.537Z,31.5
2017-12-20T05:34:26.329Z,31.5
2017-12-20T05:35:24.632Z,31.6
2017-12-20T05:36:26.328Z,31.7
2017-12-20T05:37:25.072Z,31.7
2017-12-20T05:38:26.566Z,31.8
2017-12-20T05:39:26.651Z,32
2017-12-20T05:40:24.791Z,32.1
2017-12-20T05:41:24.830Z,32.2
2017-12-20T05:42:24.871Z,32.3
2017-12-20T05:43:27.108Z,32.3
2017-12-20T05:44:25.145Z,32.4
2017-12-20T05:45:26.947Z,32.4
2017-12-20T05:46:25.343Z,32.4
2017-12-20T05:47:25.650Z,32.5
2017-12-20T05:48:27.192Z,32.6
2017-12-20T05:49:27.281Z,32.6
2017-12-20T05:50:27.286Z,32.8
2017-12-20T05:51:27.151Z,32.9
2017-12-20T05:52:25.340Z,32.9
2017-12-20T05:53:27.317Z,32.9
2017-12-20T05:54:27.610Z,32.9
2017-12-20T05:55:27.613Z,33
2017-12-20T05:56:27.417Z,33
2017-12-20T05:57:27.684Z,33
2017-12-20T05:58:25.633Z,33.1
2017-12-20T05:59:27.869Z,33.1
2017-12-20T06:00:25.769Z,33.1
2017-12-20T06:01:27.957Z,33.1
2017-12-20T06:02:25.845Z,33.2
2017-12-20T06:03:27.995Z,33.2
2017-12-20T06:04:26.014Z,33.2
2017-12-20T06:05:25.874Z,33.2
2017-12-20T06:06:25.941Z,33.2
2017-12-20T06:07:26.180Z,33.2
2017-12-20T06:08:26.082Z,33.2
2017-12-20T06:09:26.278Z,33.2
2017-12-20T06:10:26.176Z,33.2
2017-12-20T06:11:28.352Z,33.2
2017-12-20T06:12:28.201Z,33.2
2017-12-20T06:13:28.296Z,33.2
2017-12-20T06:14:26.592Z,33.2
2017-12-20T06:15:26.613Z,33.1
2017-12-20T06:16:26.530Z,33.1
2017-12-20T06:17:28.709Z,33.1
2017-12-20T06:18:26.642Z,33.1
2017-12-20T06:19:28.842Z,33.1
2017-12-20T06:20:28.653Z,33.1
2017-12-20T06:21:26.961Z,33.1
2017-12-20T06:22:28.696Z,33.1
2017-12-20T06:23:27.074Z,33
2017-12-20T06:24:27.038Z,33
2017-12-20T06:25:29.032Z,33
2017-12-20T06:26:27.184Z,33
2017-12-20T06:27:27.099Z,33
2017-12-20T06:28:27.159Z,33
2017-12-20T06:29:29.383Z,32.9
2017-12-20T06:30:27.341Z,32.9
2017-12-20T06:31:27.423Z,32.9
2017-12-20T06:32:29.338Z,32.9
2017-12-20T06:33:29.701Z,32.9
2017-12-20T06:34:29.717Z,32.8
2017-12-20T06:35:27.636Z,32.8
2017-12-20T06:36:27.630Z,32.8
2017-12-20T06:37:29.855Z,32.8
2017-12-20T06:38:29.655Z,32.7
2017-12-20T06:39:29.915Z,32.7
2017-12-20T06:40:29.723Z,32.6
2017-12-20T06:41:30.050Z,32.6
2017-12-20T06:42:28.112Z,32.6
2017-12-20T06:43:28.113Z,32.6
2017-12-20T06:44:29.885Z,32.5
2017-12-20T06:45:28.271Z,32.5
2017-12-20T06:46:30.318Z,32.5
2017-12-20T06:47:30.139Z,32.5
2017-12-20T06:48:30.096Z,32.4
2017-12-20T06:49:30.169Z,32.4
2017-12-20T06:50:28.525Z,32.4
2017-12-20T06:51:28.617Z,32.4
2017-12-20T06:52:28.493Z,32.3
2017-12-20T06:53:30.519Z,32.3
2017-12-20T06:54:28.617Z,32.3
2017-12-20T06:55:28.902Z,32.3
2017-12-20T06:56:28.860Z,32.2
2017-12-20T06:57:31.072Z,32.2
2017-12-20T06:58:30.848Z,32.1
2017-12-20T06:59:29.228Z,32.1
2017-12-20T07:00:29.270Z,32.1
2017-12-20T07:01:31.241Z,32.1
2017-12-20T07:02:31.222Z,32.1
2017-12-20T07:03:29.375Z,32
2017-12-20T07:04:29.462Z,32
2017-12-20T07:05:29.272Z,32
2017-12-20T07:06:29.602Z,32
2017-12-20T07:07:31.518Z,31.9
2017-12-20T07:08:31.514Z,31.9
2017-12-20T07:09:29.594Z,31.9
2017-12-20T07:10:31.622Z,31.9
2017-12-20T07:11:29.486Z,31.8
2017-12-20T07:12:31.705Z,31.8
2017-12-20T07:13:29.678Z,31.8
2017-12-20T07:14:31.836Z,31.8
2017-12-20T07:15:30.016Z,31.8
2017-12-20T07:16:29.787Z,31.7
2017-12-20T07:17:32.037Z,31.7
2017-12-20T07:18:30.090Z,31.7
2017-12-20T07:19:32.085Z,31.6
2017-12-20T07:20:31.928Z,31.6
2017-12-20T07:21:32.199Z,31.6
2017-12-20T07:22:30.155Z,31.6
2017-12-20T07:23:32.170Z,31.6
2017-12-20T07:24:30.522Z,31.6
2017-12-20T07:25:32.512Z,31.6
2017-12-20T07:26:30.425Z,31.6
2017-12-20T07:27:30.380Z,31.7
2017-12-20T07:28:32.616Z,31.7
2017-12-20T07:29:30.783Z,31.7
2017-12-20T07:30:32.564Z,31.7
2017-12-20T07:31:30.632Z,31.7
2017-12-20T07:32:32.599Z,31.7
2017-12-20T07:33:32.891Z,31.7
2017-12-20T07:34:31.017Z,31.8
2017-12-20T07:35:32.671Z,31.8
2017-12-20T07:36:32.977Z,31.8
2017-12-20T07:37:31.076Z,31.8
2017-12-20T07:38:32.805Z,31.8
2017-12-20T07:39:33.150Z,31.8
2017-12-20T07:40:33.420Z,31.9
2017-12-20T07:41:33.247Z,31.9
2017-12-20T07:42:33.271Z,31.9
2017-12-20T07:43:33.063Z,31.9
2017-12-20T07:44:31.404Z,32
2017-12-20T07:45:33.369Z,32
2017-12-20T07:46:31.538Z,32
2017-12-20T07:47:33.554Z,32
2017-12-20T07:48:31.697Z,32
2017-12-20T07:49:31.568Z,32
2017-12-20T07:50:33.507Z,32
2017-12-20T07:51:31.861Z,32
2017-12-20T07:52:31.900Z,32.1
2017-12-20T07:53:32.376Z,32.1
2017-12-20T07:54:31.932Z,32.1
2017-12-20T07:55:32.013Z,32.1
2017-12-20T07:56:34.249Z,32.1
2017-12-20T07:57:32.171Z,32.2
2017-12-20T07:58:32.421Z,32.2
2017-12-20T07:59:34.524Z,32.2
2017-12-20T08:00:34.247Z,32.2
2017-12-20T08:01:32.417Z,32.3
2017-12-20T08:02:34.528Z,32.3
2017-12-20T08:03:34.689Z,32.3
2017-12-20T08:04:32.708Z,32.3
2017-12-20T08:05:36.106Z,32.3
2017-12-20T08:06:32.970Z,32.3
2017-12-20T08:07:32.917Z,32.3
2017-12-20T08:08:34.879Z,32.3
2017-12-20T08:09:35.053Z,32.3
2017-12-20T08:10:32.983Z,32.3
2017-12-20T08:11:35.044Z,32.3
2017-12-20T08:12:37.956Z,32.4
2017-12-20T08:13:35.165Z,32.4
2017-12-20T08:14:33.120Z,32.4
2017-12-20T08:15:33.996Z,32.4
2017-12-20T08:16:35.182Z,32.4
2017-12-20T08:17:35.384Z,32.4
2017-12-20T08:18:35.450Z,32.4
2017-12-20T08:19:33.343Z,32.4
2017-12-20T08:20:35.584Z,32.4
2017-12-20T08:21:35.574Z,32.5
2017-12-20T08:22:35.558Z,32.5
2017-12-20T08:23:33.704Z,32.5
2017-12-20T08:24:35.551Z,32.5
2017-12-20T08:25:36.289Z,32.5
2017-12-20T08:26:35.644Z,32.5
2017-12-20T08:27:34.027Z,32.5
2017-12-20T08:28:33.991Z,32.5
2017-12-20T08:29:33.834Z,32.5
2017-12-20T08:30:34.128Z,32.6
2017-12-20T08:31:36.045Z,32.6
2017-12-20T08:32:33.938Z,32.6
2017-12-20T08:33:34.023Z,32.6
2017-12-20T08:34:34.253Z,32.7
2017-12-20T08:35:34.101Z,32.7
2017-12-20T08:36:36.051Z,32.7
2017-12-20T08:37:36.097Z,32.7
2017-12-20T08:38:36.135Z,32.7
2017-12-20T08:39:36.446Z,32.7
2017-12-20T08:40:34.564Z,32.7
2017-12-20T08:41:36.606Z,32.8
2017-12-20T08:42:36.435Z,32.8
2017-12-20T08:43:36.538Z,32.8
2017-12-20T08:44:34.848Z,32.8
2017-12-20T08:45:34.907Z,32.8
2017-12-20T08:46:37.143Z,32.8
2017-12-20T08:47:34.860Z,32.8
2017-12-20T08:48:36.831Z,32.8
2017-12-20T08:49:38.297Z,32.8
2017-12-20T08:50:38.475Z,32.8
2017-12-20T08:51:35.124Z,32.9
2017-12-20T08:52:37.204Z,32.9
2017-12-20T08:53:35.144Z,32.9
2017-12-20T08:54:37.119Z,32.9
2017-12-20T08:55:37.476Z,32.9
2017-12-20T08:56:35.308Z,32.9
2017-12-20T08:57:37.652Z,33
2017-12-20T08:58:35.597Z,33
2017-12-20T08:59:37.672Z,33
2017-12-20T09:00:35.748Z,33
2017-12-20T09:01:35.924Z,33
2017-12-20T09:02:37.765Z,33
2017-12-20T09:03:37.528Z,33
2017-12-20T09:04:37.622Z,33
2017-12-20T09:05:37.780Z,32.9
2017-12-20T09:06:37.945Z,32.5
2017-12-20T09:07:35.958Z,32.4
2017-12-20T09:08:36.008Z,32.5
2017-12-20T09:09:38.083Z,32.5
2017-12-20T09:10:35.970Z,32.4
2017-12-20T09:11:38.370Z,32.6
2017-12-20T09:12:36.185Z,32.7
2017-12-20T09:13:36.080Z,32.7
2017-12-20T09:14:36.376Z,32.7
2017-12-20T09:15:38.392Z,32.8
2017-12-20T09:16:36.520Z,32.8
2017-12-20T09:17:36.713Z,32.8
2017-12-20T09:18:36.859Z,32.9
2017-12-20T09:19:36.385Z,32.9
2017-12-20T09:20:36.594Z,32.9
2017-12-20T09:21:40.148Z,32.9
2017-12-20T09:22:38.715Z,32.9
2017-12-20T09:23:38.402Z,32.9
2017-12-20T09:24:40.315Z,32.9
2017-12-20T09:25:38.690Z,33
2017-12-20T09:26:37.089Z,33
2017-12-20T09:27:36.872Z,33
2017-12-20T09:28:39.193Z,33
2017-12-20T09:29:39.138Z,33.1
2017-12-20T09:30:38.969Z,33.1
2017-12-20T09:31:37.107Z,33.2
2017-12-20T09:32:37.255Z,33.1
2017-12-20T09:33:38.853Z,33.1
2017-12-20T09:34:37.223Z,33.1
2017-12-20T09:35:37.491Z,33
2017-12-20T09:36:37.716Z,33
2017-12-20T09:37:39.802Z,33
2017-12-20T09:38:37.563Z,33
2017-12-20T09:39:38.422Z,32.9
2017-12-20T09:40:37.769Z,32.9
2017-12-20T09:41:39.543Z,32.9
2017-12-20T09:42:37.874Z,32.9
2017-12-20T09:43:39.903Z,32.9
2017-12-20T09:44:39.687Z,32.9
2017-12-20T09:45:38.575Z,32.8
2017-12-20T09:46:40.134Z,32.9
2017-12-20T09:47:39.974Z,32.8
2017-12-20T09:48:39.867Z,32.7
2017-12-20T09:49:38.297Z,32.7
2017-12-20T09:50:40.401Z,32.7
2017-12-20T09:51:38.203Z,32.7
2017-12-20T09:52:38.375Z,32.7
2017-12-20T09:53:38.265Z,32.7
2017-12-20T09:54:40.201Z,32.8
2017-12-20T09:55:40.845Z,32.7
2017-12-20T09:56:40.553Z,32.7
2017-12-20T09:57:38.562Z,32.6
2017-12-20T09:58:40.378Z,32.7
2017-12-20T09:59:40.714Z,32.7
2017-12-20T10:00:40.810Z,32.7
2017-12-20T10:01:40.998Z,32.7
2017-12-20T10:02:38.740Z,32.7
2017-12-20T10:03:39.229Z,32.7
2017-12-20T10:04:40.737Z,32.7
2017-12-20T10:05:42.696Z,32.7
2017-12-20T10:06:41.065Z,32.8
2017-12-20T10:07:41.782Z,32.8
2017-12-20T10:08:39.360Z,32.7
2017-12-20T10:09:41.303Z,32.7
2017-12-20T10:10:41.260Z,32.7
2017-12-20T10:11:39.280Z,32.6
2017-12-20T10:12:41.551Z,32.6
2017-12-20T10:13:39.640Z,32.6
2017-12-20T10:14:39.715Z,32.6
2017-12-20T10:15:40.272Z,32.7
2017-12-20T10:16:41.546Z,32.7
2017-12-20T10:17:41.794Z,32.7
2017-12-20T10:18:41.571Z,32.6
2017-12-20T10:19:41.837Z,32.6
2017-12-20T10:20:39.999Z,32.6
2017-12-20T10:21:40.040Z,32.6
2017-12-20T10:22:40.204Z,32.6
2017-12-20T10:23:40.248Z,32.6
2017-12-20T10:24:41.973Z,32.7
2017-12-20T10:25:40.190Z,32.8
2017-12-20T10:26:40.542Z,32.8
2017-12-20T10:27:42.372Z,32.9
2017-12-20T10:28:42.730Z,33
2017-12-20T10:29:42.086Z,33
2017-12-20T10:30:40.250Z,33
2017-12-20T10:31:40.548Z,32.9
2017-12-20T10:32:42.193Z,32.9
2017-12-20T10:33:42.324Z,32.9
2017-12-20T10:34:42.515Z,32.8
2017-12-20T10:35:41.060Z,32.8
2017-12-20T10:36:42.655Z,32.8
2017-12-20T10:37:42.520Z,32.8
2017-12-20T10:38:43.335Z,32.7
2017-12-20T10:39:40.698Z,32.8
2017-12-20T10:40:42.815Z,32.8
2017-12-20T10:41:42.727Z,32.8
2017-12-20T10:42:43.003Z,32.7
2017-12-20T10:43:43.020Z,32.7
2017-12-20T10:44:42.930Z,32.7
2017-12-20T10:45:41.389Z,32.8
2017-12-20T10:46:41.291Z,32.8
2017-12-20T10:47:41.225Z,32.7
2017-12-20T10:48:41.222Z,32.7
2017-12-20T10:49:43.294Z,32.8
2017-12-20T10:50:43.371Z,32.7
2017-12-20T10:51:43.401Z,32.7
2017-12-20T10:52:41.603Z,32.6
2017-12-20T10:53:41.370Z,32.6
2017-12-20T10:54:43.523Z,32.5
2017-12-20T10:55:43.599Z,32.4
2017-12-20T10:56:41.783Z,32.4
2017-12-20T10:57:41.660Z,32.3
2017-12-20T10:58:43.560Z,32.2
2017-12-20T10:59:41.895Z,32.2
2017-12-20T11:01:08.693Z,32.1
2017-12-20T11:01:46.702Z,32
2017-12-20T11:03:41.945Z,32
2017-12-20T11:04:41.979Z,32.1
2017-12-20T11:05:43.974Z,32.1
2017-12-20T11:06:42.084Z,32.1
2017-12-20T11:07:44.248Z,32.2
2017-12-20T11:08:44.332Z,32.1
2017-12-20T11:09:44.191Z,32.1
2017-12-20T11:10:44.413Z,32.2
2017-12-20T11:11:42.666Z,32.3
2017-12-20T11:12:42.400Z,32.3
2017-12-20T11:13:44.319Z,32.3
2017-12-20T11:14:51.542Z,32.3
2017-12-20T11:15:46.083Z,32.4
2017-12-20T11:16:44.462Z,32.5
2017-12-20T11:17:45.268Z,32.5
2017-12-20T11:18:42.945Z,32.4
2017-12-20T11:19:43.328Z,32.5
2017-12-20T11:20:45.149Z,32.5
2017-12-20T11:21:44.989Z,32.5
2017-12-20T11:22:45.088Z,32.6
2017-12-20T11:23:42.990Z,32.6
2017-12-20T11:24:45.153Z,32.6
2017-12-20T11:25:45.338Z,32.6
2017-12-20T11:26:43.217Z,32.5
2017-12-20T11:27:49.595Z,32.6
2017-12-20T11:28:45.742Z,32.7
2017-12-20T11:29:44.549Z,32.7
2017-12-20T11:30:45.383Z,32.8
2017-12-20T11:31:43.348Z,32.8
2017-12-20T11:32:43.471Z,32.8
2017-12-20T11:33:45.360Z,32.8
2017-12-20T11:34:45.723Z,32.8
2017-12-20T11:35:43.565Z,32.9
2017-12-20T11:36:45.869Z,32.9
2017-12-20T11:37:43.850Z,33
2017-12-20T11:38:45.745Z,33
2017-12-20T11:39:46.135Z,33
2017-12-20T11:40:44.147Z,33
2017-12-20T11:41:44.389Z,33
2017-12-20T11:42:44.128Z,33
2017-12-20T11:43:46.159Z,33
2017-12-20T11:44:44.808Z,33
2017-12-20T11:45:46.977Z,33
2017-12-20T11:46:44.333Z,32.9
2017-12-20T11:47:46.553Z,32.9
2017-12-20T11:48:44.618Z,32.8
2017-12-20T11:49:46.376Z,32.8
2017-12-20T11:50:44.682Z,32.8
2017-12-20T11:51:44.618Z,32.8
2017-12-20T11:52:48.044Z,32.8
2017-12-20T11:53:44.649Z,32.8
2017-12-20T11:54:44.712Z,32.8
2017-12-20T11:55:46.932Z,32.8
2017-12-20T11:56:45.046Z,32.9
2017-12-20T11:57:45.142Z,32.8
2017-12-20T11:58:45.027Z,32.9
2017-12-20T11:59:44.888Z,32.9
2017-12-20T12:00:45.520Z,32.9
2017-12-20T12:01:48.635Z,32.9
2017-12-20T12:02:46.942Z,32.9
2017-12-20T12:03:46.915Z,32.9
2017-12-20T12:04:46.889Z,32.9
2017-12-20T12:05:45.384Z,32.9
2017-12-20T12:06:47.097Z,32.9
2017-12-20T12:07:47.130Z,32.9
2017-12-20T12:08:45.409Z,32.9
2017-12-20T12:09:48.881Z,33
2017-12-20T12:10:49.651Z,33
2017-12-20T12:11:50.986Z,33
2017-12-20T12:12:45.556Z,33.1
2017-12-20T12:13:47.676Z,33.1
2017-12-20T12:14:47.708Z,33.1
2017-12-20T12:15:47.745Z,33.1
2017-12-20T12:16:46.039Z,33.1
2017-12-20T12:17:46.025Z,33.1
2017-12-20T12:18:46.181Z,33.1
2017-12-20T12:19:46.095Z,33.1
2017-12-20T12:20:47.961Z,33.1
2017-12-20T12:21:46.116Z,33
2017-12-20T12:22:48.346Z,33
2017-12-20T12:23:48.123Z,33
2017-12-20T12:24:46.743Z,33
2017-12-20T12:25:46.535Z,33
2017-12-20T12:26:48.617Z,33
2017-12-20T12:27:48.736Z,33
2017-12-20T12:28:48.643Z,33
2017-12-20T12:29:48.792Z,33
2017-12-20T12:30:46.638Z,33
2017-12-20T12:31:48.646Z,33
2017-12-20T12:32:46.919Z,33
2017-12-20T12:33:48.733Z,33
2017-12-20T12:34:46.886Z,33
2017-12-20T12:35:46.889Z,33
2017-12-20T12:36:47.144Z,33
2017-12-20T12:37:50.649Z,33
2017-12-20T12:38:49.040Z,33
2017-12-20T12:39:47.143Z,33
2017-12-20T12:40:49.134Z,33
2017-12-20T12:41:49.409Z,33
2017-12-20T12:42:49.207Z,33
2017-12-20T12:43:49.252Z,33
2017-12-20T12:44:47.571Z,33
2017-12-20T12:45:49.309Z,33
2017-12-20T12:46:47.637Z,33.1
2017-12-20T12:47:47.532Z,33.1
2017-12-20T12:48:49.636Z,33.1
2017-12-20T12:49:47.856Z,33.2
2017-12-20T12:50:49.752Z,33.2
2017-12-20T12:51:49.758Z,33.3
2017-12-20T12:52:47.913Z,33.3
2017-12-20T12:53:49.820Z,33.4
2017-12-20T12:54:47.965Z,33.5
2017-12-20T12:55:48.014Z,33.6
2017-12-20T12:56:47.758Z,33.7
2017-12-20T12:57:48.081Z,33.7
2017-12-20T12:58:48.081Z,33.8
2017-12-20T12:59:50.081Z,33.9
2017-12-20T13:00:48.017Z,34
2017-12-20T13:01:49.973Z,34
2017-12-20T13:02:48.473Z,34.1
2017-12-20T13:03:50.426Z,34.1
2017-12-20T13:04:48.283Z,34.1
2017-12-20T13:05:48.529Z,34.2
2017-12-20T13:06:48.593Z,34.2
2017-12-20T13:07:48.879Z,34.2
2017-12-20T13:08:50.412Z,34.2
2017-12-20T13:09:51.394Z,34.2
2017-12-20T13:10:48.977Z,34.2
2017-12-20T13:11:48.687Z,34.2
2017-12-20T13:12:48.861Z,34.2
2017-12-20T13:13:50.904Z,34.2
2017-12-20T13:14:48.996Z,34.3
2017-12-20T13:15:50.862Z,34.2
2017-12-20T13:16:49.224Z,34.1
2017-12-20T13:17:49.134Z,34.1
2017-12-20T13:18:49.027Z,34.1
2017-12-20T13:19:51.217Z,34.1
2017-12-20T13:20:51.100Z,34
2017-12-20T13:21:51.111Z,34.1
2017-12-20T13:22:51.250Z,34.1
2017-12-20T13:23:49.507Z,34.1
2017-12-20T13:24:49.539Z,34.1
2017-12-20T13:25:49.586Z,34.1